Time;durP1;ratioP1;P1;durP2;ratioP2;P2;SDS_P1;SDS_P2;PMS_P1;PMS_P2;Temp;Humidity;BMP_temperature;BMP_pressure;BME280_temperature;BME280_humidity;BME280_pressure;Samples;Min_cycle;Max_cycle;Signal;HPM_P1;HPM_P2
2023/02/08 00:01:38;;;;;;;23.13;10.15;;;;;;;-11.58;69.58;101070.22;4789339;29;20461;-79
2023/02/08 00:04:04;;;;;;;23.27;10.07;;;;;;;-11.59;69.27;101061.56;4789154;29;20050;-79
2023/02/08 00:06:30;;;;;;;23.90;10.90;;;;;;;-11.58;69.31;101072.78;4787545;30;20051;-78
2023/02/08 00:08:57;;;;;;;24.25;11.38;;;;;;;-11.60;69.23;101064.09;4789055;29;20500;-79
2023/02/08 00:11:22;;;;;;;30.17;10.48;;;;;;;-11.54;69.25;101064.34;4802691;29;20039;-79
2023/02/08 00:13:48;;;;;;;19.80;8.68;;;;;;;-11.56;68.97;101066.84;4787895;30;20051;-80
2023/02/08 00:16:15;;;;;;;26.40;11.05;;;;;;;-11.50;68.78;101066.22;4803072;29;20388;-81
2023/02/08 00:18:41;;;;;;;30.58;12.30;;;;;;;-11.47;68.51;101076.63;4773060;30;20054;-79
2023/02/08 00:21:13;;;;;;;21.70;9.05;;;;;;;-11.48;68.29;101074.00;4802481;29;20065;-81
2023/02/08 00:23:39;;;;;;;26.25;10.70;;;;;;;-11.78;69.13;101067.75;4788204;30;20051;-80
2023/02/08 00:26:06;;;;;;;26.08;10.50;;;;;;;-11.74;68.90;101064.47;4787472;30;20051;-79
2023/02/08 00:28:31;;;;;;;30.02;10.55;;;;;;;-11.68;68.45;101070.69;4788782;30;20450;-79
2023/02/08 00:30:57;;;;;;;28.83;11.85;;;;;;;-11.67;68.95;101078.47;4787481;29;20051;-79
2023/02/08 00:33:23;;;;;;;22.08;9.95;;;;;;;-11.62;68.74;101071.81;4787128;30;20500;-82
2023/02/08 00:35:49;;;;;;;27.08;11.32;;;;;;;-11.70;68.67;101078.34;4802448;29;20150;-80
2023/02/08 00:38:15;;;;;;;35.05;11.75;;;;;;;-11.64;68.87;101076.00;4787579;30;20492;-80
2023/02/08 00:40:42;;;;;;;24.45;11.35;;;;;;;-11.65;68.94;101076.84;4802000;29;20059;-80
2023/02/08 00:43:08;;;;;;;29.02;11.27;;;;;;;-11.70;68.92;101085.22;4787471;30;20083;-80
2023/02/08 00:45:34;;;;;;;27.42;12.23;;;;;;;-11.66;68.96;101085.38;4802252;29;20492;-79
2023/02/08 00:47:59;;;;;;;29.30;10.90;;;;;;;-11.79;69.02;101089.22;4787307;30;20046;-81
2023/02/08 00:50:25;;;;;;;18.38;8.55;;;;;;;-11.84;68.62;101097.66;4786847;30;20078;-81
2023/02/08 00:52:51;;;;;;;30.20;12.13;;;;;;;-11.84;68.75;101097.66;4787797;30;20083;-79
2023/02/08 00:55:17;;;;;;;24.65;10.80;;;;;;;-11.82;68.97;101083.06;4788369;29;20062;-79
2023/02/08 00:57:42;;;;;;;27.20;12.10;;;;;;;-11.70;68.65;101093.81;4772168;30;20440;-79
2023/02/08 01:00:10;;;;;;;23.90;10.23;;;;;;;-11.65;69.03;101099.19;4788528;30;20134;-80
2023/02/08 01:02:37;;;;;;;27.27;11.18;;;;;;;-11.71;69.03;101092.06;4757370;30;20047;-80
2023/02/08 01:05:03;;;;;;;35.35;11.23;;;;;;;-11.62;68.78;101083.78;4788228;29;20055;-80
2023/02/08 01:07:29;;;;;;;23.30;9.73;;;;;;;-11.57;68.68;101088.31;4787523;30;20066;-79
2023/02/08 01:09:55;;;;;;;22.15;10.10;;;;;;;-11.57;67.94;101080.56;4787637;29;20516;-81
2023/02/08 01:12:21;;;;;;;25.83;12.00;;;;;;;-11.58;67.80;101089.16;4802038;29;20151;-80
2023/02/08 01:14:47;;;;;;;24.92;10.80;;;;;;;-11.57;68.24;101090.91;4786832;30;20063;-80
2023/02/08 01:17:13;;;;;;;30.25;10.85;;;;;;;-11.58;67.85;101091.72;4787972;29;20051;-80
2023/02/08 01:19:38;;;;;;;27.20;11.38;;;;;;;-11.54;67.74;101085.84;4786665;30;20573;-80
2023/02/08 01:22:04;;;;;;;35.75;13.13;;;;;;;-11.54;67.65;101069.50;4801854;29;20043;-81
2023/02/08 01:24:31;;;;;;;24.10;10.18;;;;;;;-11.50;67.49;101085.16;4787971;29;20047;-80
2023/02/08 01:26:57;;;;;;;28.67;11.23;;;;;;;-11.55;67.36;101084.06;4801886;29;20497;-79
2023/02/08 01:29:24;;;;;;;31.40;11.55;;;;;;;-11.65;67.03;101076.84;4801676;29;20051;-79
2023/02/08 01:31:50;;;;;;;28.98;11.27;;;;;;;-11.69;67.13;101081.84;4788212;29;20388;-79
2023/02/08 01:34:16;;;;;;;28.83;10.80;;;;;;;-11.82;67.59;101088.22;4786478;30;20054;-80
2023/02/08 01:36:42;;;;;;;25.30;11.20;;;;;;;-11.92;67.17;101079.31;4757231;30;20047;-80
2023/02/08 01:39:10;;;;;;;26.20;11.13;;;;;;;-11.90;67.60;101094.81;4786517;30;20094;-79
2023/02/08 01:41:43;;;;;;;31.33;11.35;;;;;;;-11.88;67.47;101091.50;4786698;30;20050;-80
2023/02/08 01:44:12;;;;;;;39.80;14.45;;;;;;;-11.85;67.31;101094.16;4786623;30;20047;-80
2023/02/08 01:46:39;;;;;;;;;;;;;;;-11.86;67.55;101087.25;4772081;30;20134;-80
2023/02/08 01:49:14;;;;;;;33.30;10.30;;;;;;;-11.94;67.36;101085.22;4786633;30;19921;-80
2023/02/08 01:51:46;;;;;;;30.75;10.80;;;;;;;-11.98;67.44;101080.75;4771704;30;20115;-81
2023/02/08 01:54:14;;;;;;;23.10;10.68;;;;;;;-11.97;67.30;101087.66;4757007;30;20103;-81
2023/02/08 01:56:44;;;;;;;25.58;9.70;;;;;;;-12.03;67.10;101072.84;4787651;29;20075;-80
2023/02/08 01:59:25;;;;;;;25.85;10.98;;;;;;;-12.16;67.07;101080.91;4771865;30;20561;-82
2023/02/08 02:01:54;;;;;;;29.85;11.55;;;;;;;-12.30;67.29;101070.06;4801381;29;20137;-80
2023/02/08 02:04:20;;;;;;;28.03;10.10;;;;;;;-12.43;67.07;101079.00;4785379;30;20070;-80
2023/02/08 02:06:50;;;;;;;25.73;9.68;;;;;;;-12.63;67.20;101070.47;4801243;29;20051;-80
2023/02/08 02:09:44;;;;;;;32.13;10.93;;;;;;;-12.81;67.31;101072.28;4786697;30;20051;-79
2023/02/08 02:12:11;;;;;;;21.23;8.98;;;;;;;-12.95;67.37;101078.56;4786606;30;20043;-79
2023/02/08 02:14:38;;;;;;;23.90;9.88;;;;;;;-13.04;67.82;101077.34;4787506;30;20154;-80
2023/02/08 02:17:07;;;;;;;17.92;8.90;;;;;;;-13.10;68.40;101069.38;4783172;30;20048;-79
2023/02/08 02:19:47;;;;;;;31.60;11.57;;;;;;;-13.14;68.41;101072.63;4768542;30;20060;-81
2023/02/08 02:22:31;;;;;;;29.40;11.75;;;;;;;-13.24;68.66;101055.06;4771136;30;20054;-80
2023/02/08 02:24:59;;;;;;;29.27;11.60;;;;;;;-13.29;69.02;101057.44;4786553;30;20062;-80
2023/02/08 02:27:39;;;;;;;21.95;10.68;;;;;;;-13.26;68.54;101067.00;4786591;30;20109;-78
2023/02/08 02:30:31;;;;;;;30.65;12.05;;;;;;;-13.24;69.06;101068.84;4771576;30;20055;-81
2023/02/08 02:33:04;;;;;;;31.27;11.95;;;;;;;-13.22;68.55;101071.41;4771542;30;20079;-81
2023/02/08 02:35:43;;;;;;;25.17;9.75;;;;;;;-13.29;68.95;101072.00;4771386;30;20130;-81
2023/02/08 02:38:19;;;;;;;22.33;10.15;;;;;;;-13.36;68.88;101064.81;4756488;30;20369;-80
2023/02/08 02:41:01;;;;;;;31.35;13.20;;;;;;;-13.40;69.16;101060.38;4786258;30;20066;-80
2023/02/08 02:43:41;;;;;;;30.95;13.15;;;;;;;-13.43;69.13;101057.66;4756053;30;20056;-80
2023/02/08 02:46:26;;;;;;;20.85;8.63;;;;;;;-13.47;69.13;101061.78;4771308;30;20063;-81
2023/02/08 02:49:10;;;;;;;34.17;14.32;;;;;;;-13.53;69.18;101059.84;4786171;30;20570;-82
2023/02/08 02:51:47;;;;;;;33.45;13.98;;;;;;;-13.61;68.78;101065.44;4772715;30;20056;-80
2023/02/08 02:54:32;;;;;;;31.77;14.20;;;;;;;-13.69;68.88;101067.66;4789406;30;20579;-80
2023/02/08 02:57:04;;;;;;;26.58;12.32;;;;;;;-13.67;69.36;101068.63;4788944;30;20160;-81
2023/02/08 02:59:33;;;;;;;34.53;14.02;;;;;;;-13.69;69.38;101070.22;4803745;29;20062;-80
2023/02/08 03:01:59;;;;;;;31.08;13.52;;;;;;;-13.69;69.47;101064.22;4759510;30;20082;-80
2023/02/08 03:04:33;;;;;;;43.03;16.40;;;;;;;-13.69;69.06;101066.78;4788699;30;20495;-82
2023/02/08 03:07:24;;;;;;;35.70;14.23;;;;;;;-13.67;69.04;101063.47;4759279;30;20465;-81
2023/02/08 03:10:21;;;;;;;36.67;15.02;;;;;;;-13.83;69.22;101064.50;4789005;30;20062;-81
2023/02/08 03:13:08;;;;;;;30.67;14.65;;;;;;;-14.07;69.66;101051.38;4789959;30;20071;-81
2023/02/08 03:15:54;;;;;;;40.08;15.85;;;;;;;-14.21;69.74;101067.88;4788698;30;20062;-81
2023/02/08 03:18:29;;;;;;;45.22;16.02;;;;;;;-14.22;70.07;101056.69;4789940;30;20048;-82
2023/02/08 03:21:23;;;;;;;24.83;11.40;;;;;;;-14.24;70.18;101057.44;4803536;29;20051;-81
2023/02/08 03:24:11;;;;;;;28.50;12.27;;;;;;;-14.23;69.85;101059.19;4788812;30;20051;-81
2023/02/08 03:26:43;;;;;;;39.22;15.45;;;;;;;-14.25;70.09;101060.81;4760448;30;20087;-82
2023/02/08 03:29:31;;;;;;;28.52;13.57;;;;;;;-14.28;69.87;101071.84;4774649;30;20057;-80
2023/02/08 03:32:03;;;;;;;13.75;7.30;;;;;;;-14.32;70.42;101071.63;4788198;29;20063;-81
2023/02/08 03:34:53;;;;;;;33.60;12.45;;;;;;;-14.35;70.05;101064.63;4787564;30;20140;-82
2023/02/08 03:37:57;;;;;;;27.75;11.43;;;;;;;-14.46;70.35;101066.69;4757881;30;20408;-81
2023/02/08 03:40:38;;;;;;;36.72;15.68;;;;;;;-14.50;70.59;101074.22;4700985;30;20142;-81
2023/02/08 03:43:15;;;;;;;27.92;11.23;;;;;;;-14.55;70.63;101076.56;4757637;30;20043;-81
2023/02/08 03:46:15;;;;;;;28.40;13.15;;;;;;;-14.60;70.84;101075.44;4757496;30;20063;-81
2023/02/08 03:48:48;;;;;;;30.17;12.82;;;;;;;-14.64;70.84;101067.53;4735411;30;20059;-80
2023/02/08 03:51:15;;;;;;;34.50;14.63;;;;;;;-14.86;70.89;101068.16;4772253;30;20516;-79
2023/02/08 03:53:44;;;;;;;31.52;14.88;;;;;;;-14.89;71.10;101073.13;4772155;30;20070;-81
2023/02/08 03:56:35;;;;;;;36.85;17.02;;;;;;;-15.02;71.60;101075.09;4787013;30;20089;-80
2023/02/08 03:59:06;;;;;;;44.40;14.70;;;;;;;-14.94;71.34;101081.50;4717278;30;20478;-80
2023/02/08 04:01:40;;;;;;;35.25;15.20;;;;;;;-14.79;71.41;101085.63;4757108;30;20047;-80
2023/02/08 04:04:06;;;;;;;44.70;17.50;;;;;;;-14.68;71.31;101081.91;4757267;30;20070;-80
2023/02/08 04:06:32;;;;;;;34.50;15.82;;;;;;;-14.68;70.63;101071.63;4757157;30;20058;-82
2023/02/08 04:08:58;;;;;;;24.85;12.90;;;;;;;-14.68;70.50;101073.31;4771854;30;20047;-83
2023/02/08 04:11:24;;;;;;;26.92;14.32;;;;;;;-14.75;70.51;101070.44;4745018;30;20258;-82
2023/02/08 04:13:49;;;;;;;27.40;12.57;;;;;;;-14.96;70.20;101064.28;4787793;30;20055;-82
2023/02/08 04:16:15;;;;;;;36.17;13.70;;;;;;;-15.05;70.85;101072.38;4757740;30;20063;-83
2023/02/08 04:18:41;;;;;;;40.90;17.75;;;;;;;-14.92;71.17;101067.88;4772714;30;20047;-84
2023/02/08 04:21:07;;;;;;;43.83;18.33;;;;;;;-14.77;70.50;101078.91;4788546;29;20047;-80
2023/02/08 04:23:33;;;;;;;36.70;15.93;;;;;;;-14.73;70.02;101080.81;4788984;29;20377;-81
2023/02/08 04:25:59;;;;;;;32.17;13.98;;;;;;;-14.76;70.15;101072.94;4787527;30;20104;-82
2023/02/08 04:28:24;;;;;;;35.20;13.25;;;;;;;-14.79;69.94;101085.63;4788836;29;20052;-82
2023/02/08 04:30:53;;;;;;;32.67;12.80;;;;;;;-14.75;69.92;101073.00;4787597;29;20047;-83
2023/02/08 04:33:19;;;;;;;33.55;14.05;;;;;;;-14.72;70.05;101070.59;4787479;30;20043;-79
2023/02/08 04:35:45;;;;;;;43.45;16.90;;;;;;;-14.83;70.03;101068.31;4802312;29;20058;-83
2023/02/08 04:38:10;;;;;;;39.80;16.73;;;;;;;-14.85;70.19;101075.97;4787554;30;20051;-84
2023/02/08 04:40:36;;;;;;;60.85;20.38;;;;;;;-14.77;70.07;101068.63;4787556;30;20466;-80
2023/02/08 04:43:02;;;;;;;37.47;18.52;;;;;;;-14.67;69.97;101064.81;4788094;29;20055;-81
2023/02/08 04:45:30;;;;;;;43.40;19.30;;;;;;;-14.62;69.79;101077.06;4787192;30;20105;-82
2023/02/08 04:47:57;;;;;;;47.05;20.15;;;;;;;-14.53;69.92;101074.94;4772322;30;20089;-83
2023/02/08 04:50:23;;;;;;;48.58;17.95;;;;;;;-14.29;69.48;101077.78;4758405;30;20104;-80
2023/02/08 04:52:48;;;;;;;39.03;17.02;;;;;;;-14.12;69.67;101067.41;4792993;29;20050;-80
2023/02/08 04:55:14;;;;;;;35.30;14.65;;;;;;;-13.40;73.64;101078.38;4788585;30;20059;-81
2023/02/08 04:57:40;;;;;;;37.88;16.05;;;;;;;-13.42;71.13;101078.31;4787295;30;20047;-82
2023/02/08 05:00:07;;;;;;;48.45;17.42;;;;;;;-13.45;70.02;101080.75;4803417;29;20092;-80
2023/02/08 05:02:32;;;;;;;64.07;32.53;;;;;;;-13.41;69.40;101082.63;4789329;30;20071;-81
2023/02/08 05:04:58;;;;;;;53.45;20.00;;;;;;;-13.26;68.96;101083.31;4771683;30;20086;-82
2023/02/08 05:07:25;;;;;;;56.60;23.35;;;;;;;-13.18;68.14;101081.03;4784007;30;20079;-86
2023/02/08 05:09:51;;;;;;;49.47;20.00;;;;;;;-13.18;66.98;101081.03;4781873;30;20059;-83
2023/02/08 05:12:17;;;;;;;68.03;25.10;;;;;;;-13.19;67.35;101086.13;4770485;30;20105;-83
2023/02/08 05:14:42;;;;;;;42.70;16.95;;;;;;;-13.47;67.24;101075.50;4769337;30;20134;-84
2023/02/08 05:17:08;;;;;;;44.78;18.92;;;;;;;-13.45;67.38;101082.44;4782873;30;20055;-81
2023/02/08 05:19:34;;;;;;;38.20;17.08;;;;;;;-13.33;67.40;101086.41;4803761;29;20055;-83
2023/02/08 05:22:00;;;;;;;32.33;12.55;;;;;;;-13.43;66.39;101084.25;4777372;30;20411;-81
2023/02/08 05:24:25;;;;;;;29.63;14.40;;;;;;;-13.65;66.24;101092.72;4791766;30;20054;-84
2023/02/08 05:26:51;;;;;;;28.98;13.80;;;;;;;-13.65;66.61;101092.72;4795855;30;20051;-90
2023/02/08 05:29:17;;;;;;;27.90;13.77;;;;;;;-13.47;68.23;101088.38;4789508;30;20142;-84
2023/02/08 05:31:43;;;;;;;43.20;17.05;;;;;;;-13.25;67.78;101089.31;4791316;29;20047;-83
2023/02/08 05:34:12;;;;;;;38.65;18.42;;;;;;;-13.37;66.54;101088.81;4790717;29;20534;-82
2023/02/08 05:36:38;;;;;;;28.25;14.15;;;;;;;-13.39;66.71;101083.56;4789915;29;20055;-89
2023/02/08 05:39:04;;;;;;;41.35;16.55;;;;;;;-13.56;66.84;101087.97;4773136;30;20090;-86
2023/02/08 05:41:30;;;;;;;38.90;16.02;;;;;;;-13.52;66.51;101092.44;4786785;30;20602;-82
2023/02/08 05:43:56;;;;;;;44.30;18.23;;;;;;;-13.64;66.56;101097.06;4788731;29;20122;-81
2023/02/08 05:46:22;;;;;;;50.85;20.42;;;;;;;-13.55;67.44;101089.72;4787818;30;20500;-85
2023/02/08 05:48:48;;;;;;;41.90;18.88;;;;;;;-13.28;67.38;101096.91;4801693;29;20442;-82
2023/02/08 05:51:14;;;;;;;43.63;19.48;;;;;;;-13.04;67.20;101095.38;4788097;29;20047;-84
2023/02/08 05:53:40;;;;;;;49.70;19.15;;;;;;;-12.89;66.71;101094.28;4786469;30;20047;-85
2023/02/08 05:56:06;;;;;;;41.65;18.05;;;;;;;-12.99;65.24;101088.72;4788747;29;20074;-84
2023/02/08 05:58:32;;;;;;;52.15;16.95;;;;;;;-13.05;65.35;101092.72;4804483;29;20059;-84
2023/02/08 06:00:58;;;;;;;54.90;19.48;;;;;;;-13.01;65.52;101092.94;4804019;29;20051;-81
2023/02/08 06:03:24;;;;;;;50.17;19.73;;;;;;;-13.11;65.48;101093.34;4803732;29;20054;-82
2023/02/08 06:05:50;;;;;;;53.85;17.58;;;;;;;-13.14;65.93;101088.06;4789285;30;20049;-79
2023/02/08 06:08:15;;;;;;;41.65;18.40;;;;;;;-12.94;65.88;101088.03;4789968;30;20043;-83
2023/02/08 06:10:42;;;;;;;37.50;19.10;;;;;;;-12.72;65.45;101088.13;4760141;30;20509;-83
2023/02/08 06:13:07;;;;;;;39.28;17.85;;;;;;;-12.71;65.53;101084.75;4791260;29;20488;-85
2023/02/08 06:15:33;;;;;;;43.63;17.55;;;;;;;-12.63;65.03;101087.63;4774749;30;20093;-85
2023/02/08 06:17:59;;;;;;;45.33;18.90;;;;;;;-12.61;65.25;101085.97;4790086;30;20047;-85
2023/02/08 06:20:25;;;;;;;39.20;16.70;;;;;;;-12.48;64.41;101073.69;4760265;30;20189;-85
2023/02/08 06:22:50;;;;;;;39.78;17.60;;;;;;;-12.38;64.66;101079.19;4789872;30;20046;-82
2023/02/08 06:25:16;;;;;;;40.53;17.95;;;;;;;-12.22;65.02;101079.00;4789686;30;20043;-87
2023/02/08 06:27:42;;;;;;;40.28;16.42;;;;;;;-12.02;64.66;101090.94;4760006;30;20047;-85
2023/02/08 06:30:09;;;;;;;39.83;16.58;;;;;;;-11.77;64.43;101081.53;4790786;30;20051;-85
2023/02/08 06:32:35;;;;;;;48.10;17.58;;;;;;;-11.61;64.38;101068.41;4789516;29;20130;-86
2023/02/08 06:35:01;;;;;;;54.00;19.35;;;;;;;-11.48;63.60;101074.88;4759258;30;20044;-85
2023/02/08 06:37:29;;;;;;;34.72;15.45;;;;;;;-11.87;62.41;101071.72;4789290;29;20508;-83
2023/02/08 06:39:55;;;;;;;45.10;17.88;;;;;;;-12.06;62.57;101072.72;4789337;30;20047;-82
2023/02/08 06:42:20;;;;;;;29.02;14.10;;;;;;;-12.23;63.08;101077.22;4774385;30;20047;-79
2023/02/08 06:44:48;;;;;;;48.75;17.52;;;;;;;-12.39;63.56;101068.00;4788924;30;20058;-81
2023/02/08 06:47:15;;;;;;;47.30;19.83;;;;;;;-12.24;63.68;101070.31;4790606;29;20051;-82
2023/02/08 06:49:40;;;;;;;38.60;16.30;;;;;;;-12.03;63.41;101073.72;4790289;30;20051;-82
2023/02/08 06:52:06;;;;;;;47.30;15.75;;;;;;;-11.88;63.02;101072.53;4789021;30;20058;-80
2023/02/08 06:54:32;;;;;;;42.30;17.88;;;;;;;-11.71;62.75;101055.09;4790423;30;20083;-82
2023/02/08 06:56:58;;;;;;;44.35;18.60;;;;;;;-11.56;62.93;101051.38;4789137;30;20063;-80
2023/02/08 06:59:24;;;;;;;56.78;21.05;;;;;;;-11.45;62.50;101059.50;4803912;29;20065;-81
2023/02/08 07:01:50;;;;;;;46.40;19.20;;;;;;;-11.33;62.74;101059.06;4790099;29;20055;-82
2023/02/08 07:04:16;;;;;;;32.00;15.43;;;;;;;-11.23;62.36;101045.66;4788736;30;20051;-81
2023/02/08 07:06:42;;;;;;;39.00;16.75;;;;;;;-11.17;62.23;101051.00;4787251;29;20085;-83
2023/02/08 07:09:08;;;;;;;31.73;13.68;;;;;;;-11.16;62.08;101042.47;4759136;30;20051;-80
2023/02/08 07:11:44;;;;;;;46.85;16.17;;;;;;;-11.07;61.65;101047.06;4788506;30;20047;-81
2023/02/08 07:14:12;;;;;;;37.17;16.90;;;;;;;-10.98;61.98;101043.91;4789615;30;20083;-83
2023/02/08 07:16:38;;;;;;;66.65;19.45;;;;;;;-10.80;61.66;101042.81;4788903;30;20500;-78
2023/02/08 07:19:04;;;;;;;50.03;19.40;;;;;;;-10.68;61.67;101031.13;4773776;30;20055;-79
2023/02/08 07:21:30;;;;;;;55.03;20.52;;;;;;;-10.39;62.07;101030.34;4788578;30;20075;-80
2023/02/08 07:23:56;;;;;;;57.53;20.60;;;;;;;-10.08;61.43;101037.34;4788098;30;20097;-79
2023/02/08 07:26:22;;;;;;;63.05;21.50;;;;;;;-9.93;61.11;101029.13;4758978;30;20138;-78
2023/02/08 07:28:47;;;;;;;48.22;20.65;;;;;;;-9.82;60.24;101035.50;4788477;30;20068;-81
2023/02/08 07:31:16;;;;;;;51.25;19.05;;;;;;;-9.74;59.72;101032.25;4789041;29;20503;-80
2023/02/08 07:33:42;;;;;;;32.72;14.93;;;;;;;-9.69;59.35;101021.22;4788972;30;20040;-81
2023/02/08 07:36:09;;;;;;;52.38;19.05;;;;;;;-9.90;58.63;101024.06;4802956;29;20055;-81
2023/02/08 07:38:36;;;;;;;62.50;21.83;;;;;;;-9.63;59.39;101016.22;4785159;30;20548;-83
2023/02/08 07:41:07;;;;;;;52.47;21.27;;;;;;;-9.34;59.81;101013.56;4770252;30;20108;-85
2023/02/08 07:43:34;;;;;;;48.38;20.98;;;;;;;-9.12;59.22;101004.66;4785251;30;20063;-82
2023/02/08 07:46:12;;;;;;;56.90;21.42;;;;;;;-8.73;58.95;101003.91;4755697;30;20044;-82
2023/02/08 07:48:38;;;;;;;57.53;22.48;;;;;;;-8.60;58.38;101005.97;4785130;30;20051;-79
2023/02/08 07:51:05;;;;;;;60.17;21.38;;;;;;;-8.45;56.82;101010.63;4740615;30;20394;-83
2023/02/08 07:53:31;;;;;;;59.30;22.33;;;;;;;-8.50;56.85;101002.72;4786193;30;20056;-81
2023/02/08 07:55:57;;;;;;;54.28;22.80;;;;;;;-8.45;57.12;101005.44;4770266;30;20052;-78
2023/02/08 07:58:23;;;;;;;53.30;21.55;;;;;;;-8.57;56.66;100993.94;4770206;30;20058;-81
2023/02/08 08:00:49;;;;;;;49.60;21.30;;;;;;;-8.56;56.65;100993.09;4755270;30;20047;-82
2023/02/08 08:03:15;;;;;;;65.28;24.95;;;;;;;-8.29;56.76;100984.16;4756205;30;20496;-83
2023/02/08 08:05:42;;;;;;;74.13;28.85;;;;;;;-8.42;56.30;100984.78;4755718;30;20055;-79
2023/02/08 08:08:09;;;;;;;74.07;28.85;;;;;;;-8.21;56.52;100985.22;4770329;30;20059;-83
2023/02/08 08:10:35;;;;;;;94.63;34.80;;;;;;;-7.91;55.67;100985.00;4759710;30;20047;-80
2023/02/08 08:13:01;;;;;;;78.55;29.27;;;;;;;-7.93;55.10;100991.03;4757673;30;20093;-82
2023/02/08 08:15:27;;;;;;;62.40;25.85;;;;;;;-7.98;54.94;100977.91;4803997;29;20063;-79
2023/02/08 08:17:53;;;;;;;64.88;26.33;;;;;;;-7.79;54.97;100979.19;4787862;29;20058;-79
2023/02/08 08:20:19;;;;;;;65.13;25.70;;;;;;;-7.87;54.44;100981.63;4787167;30;20522;-81
2023/02/08 08:22:45;;;;;;;75.50;25.75;;;;;;;-8.08;54.13;100969.09;4787513;30;20127;-79
2023/02/08 08:25:11;;;;;;;53.83;21.23;;;;;;;-7.95;54.44;100977.13;4788889;29;20144;-82
2023/02/08 08:27:37;;;;;;;66.47;27.15;;;;;;;-7.71;54.21;100969.84;4758032;30;20051;-80
2023/02/08 08:30:05;;;;;;;63.92;24.23;;;;;;;-7.89;53.69;100959.09;4787497;30;20111;-78
2023/02/08 08:32:31;;;;;;;49.78;19.42;;;;;;;-8.00;53.16;100965.78;4757667;30;20051;-82
2023/02/08 08:34:57;;;;;;;42.45;21.00;;;;;;;-7.99;54.01;100962.34;4788727;29;20070;-79
2023/02/08 08:37:23;;;;;;;52.10;21.45;;;;;;;-7.78;54.52;100965.38;4770778;30;20051;-81
2023/02/08 08:39:49;;;;;;;44.10;17.50;;;;;;;-7.89;53.47;100977.25;4770659;30;20043;-79
2023/02/08 08:42:14;;;;;;;53.72;20.10;;;;;;;-8.12;53.41;100969.88;4787043;30;20135;-81
2023/02/08 08:44:40;;;;;;;36.97;15.20;;;;;;;-8.72;53.59;100966.78;4787193;30;20047;-82
2023/02/08 08:47:07;;;;;;;59.20;22.42;;;;;;;-8.70;54.73;100962.50;4768067;30;20055;-82
2023/02/08 08:49:33;;;;;;;56.78;21.88;;;;;;;-8.39;54.92;100948.53;4784903;30;20047;-80
2023/02/08 08:51:59;;;;;;;50.85;21.52;;;;;;;-8.17;53.58;100948.13;4770238;30;20050;-82
2023/02/08 08:54:25;;;;;;;59.42;21.50;;;;;;;-7.93;53.80;100954.69;4770263;30;20047;-80
2023/02/08 08:56:51;;;;;;;51.05;19.65;;;;;;;-7.88;53.17;100938.34;4769299;30;20046;-81
2023/02/08 08:59:17;;;;;;;51.90;21.92;;;;;;;-7.40;53.67;100942.75;4779125;30;20055;-81
2023/02/08 09:01:43;;;;;;;55.65;21.90;;;;;;;-7.30;53.05;100928.16;4755636;30;20063;-79
2023/02/08 09:04:09;;;;;;;47.55;21.42;;;;;;;-6.99;53.11;100940.00;4778718;30;20043;-80
2023/02/08 09:06:35;;;;;;;51.42;22.10;;;;;;;-6.91;52.16;100937.50;4764285;30;20122;-80
2023/02/08 09:09:02;;;;;;;51.63;22.83;;;;;;;-6.72;51.81;100928.28;4786619;30;20068;-82
2023/02/08 09:11:28;;;;;;;54.92;23.42;;;;;;;-6.53;51.81;100909.50;4763773;30;20104;-81
2023/02/08 09:13:55;;;;;;;65.55;25.90;;;;;;;-6.15;51.21;100933.44;4786040;30;20047;-81
2023/02/08 09:16:22;;;;;;;58.97;25.98;;;;;;;-5.78;50.73;100928.66;4786347;30;20050;-80
2023/02/08 09:18:48;;;;;;;54.05;24.52;;;;;;;-5.45;50.68;100927.28;4785502;29;20047;-80
2023/02/08 09:21:20;;;;;;;61.30;24.27;;;;;;;-5.37;50.02;100915.22;4787194;30;20089;-80
2023/02/08 09:23:46;;;;;;;89.75;25.38;;;;;;;-5.38;49.51;100924.75;4781412;30;20103;-80
2023/02/08 09:26:16;;;;;;;72.35;23.25;;;;;;;-5.68;48.72;100934.81;4778961;30;20049;-81
2023/02/08 09:28:44;;;;;;;53.40;23.02;;;;;;;-5.58;48.93;100936.69;4772269;30;20039;-80
2023/02/08 09:31:28;;;;;;;48.58;20.25;;;;;;;-5.62;48.12;100941.00;4780674;29;20050;-81
2023/02/08 09:33:56;;;;;;;49.05;18.92;;;;;;;-5.88;48.00;100927.66;4781643;30;20055;-82
2023/02/08 09:36:24;;;;;;;52.40;21.77;;;;;;;-5.82;48.06;100932.09;4771458;30;20043;-82
2023/02/08 09:38:56;;;;;;;55.08;22.02;;;;;;;-5.99;48.57;100931.91;4801343;29;20086;-80
2023/02/08 09:42:00;;;;;;;50.15;20.30;;;;;;;-6.17;48.67;100934.25;4784065;30;20067;-80
2023/02/08 09:44:50;;;;;;;50.05;21.48;;;;;;;-6.09;48.88;100932.66;4787356;30;20414;-80
2023/02/08 09:47:27;;;;;;;50.47;19.92;;;;;;;-6.44;48.72;100929.56;4781342;30;20105;-81
2023/02/08 09:49:59;;;;;;;51.95;21.13;;;;;;;-6.70;48.98;100927.44;4783786;30;20058;-81
2023/02/08 09:52:36;;;;;;;44.53;20.30;;;;;;;-6.83;49.24;100928.13;4785377;30;20523;-79
2023/02/08 09:55:24;;;;;;;43.05;18.90;;;;;;;-6.76;49.21;100911.75;4784370;30;20048;-80
2023/02/08 09:57:53;;;;;;;45.67;18.15;;;;;;;-6.61;49.21;100919.78;4770006;30;20504;-81
2023/02/08 10:00:29;;;;;;;45.30;18.80;;;;;;;-6.46;49.36;100907.88;4783707;30;20420;-82
2023/02/08 10:02:58;;;;;;;43.75;17.95;;;;;;;-6.56;49.52;100909.44;4787325;29;20097;-82
2023/02/08 10:05:26;;;;;;;41.50;18.25;;;;;;;-6.56;49.78;100908.56;4771098;30;20043;-83
2023/02/08 10:07:52;;;;;;;45.78;18.38;;;;;;;-6.42;50.10;100899.25;4781429;29;20070;-81
2023/02/08 10:10:41;;;;;;;44.40;17.52;;;;;;;-6.40;50.17;100893.19;4768798;30;20079;-83
2023/02/08 10:13:28;;;;;;;44.30;17.33;;;;;;;-6.29;49.51;100893.34;4787978;29;20051;-80
2023/02/08 10:16:05;;;;;;;47.15;16.42;;;;;;;-6.33;49.31;100896.75;4771284;30;20094;-81
2023/02/08 10:19:03;;;;;;;44.85;18.08;;;;;;;-6.14;48.90;100877.91;4785765;30;20051;-81
2023/02/08 10:21:55;;;;;;;47.10;18.02;;;;;;;-5.88;49.11;100885.13;4769447;30;20043;-81
2023/02/08 10:24:52;;;;;;;44.67;18.63;;;;;;;-5.89;48.62;100891.19;4768401;30;20050;-81
2023/02/08 10:27:50;;;;;;;48.08;19.67;;;;;;;-5.86;48.71;100888.63;4770962;30;20049;-82
2023/02/08 10:30:19;;;;;;;56.25;17.92;;;;;;;-6.12;48.82;100873.59;4710881;29;20047;-82
2023/02/08 10:32:59;;;;;;;43.40;18.98;;;;;;;-6.33;49.12;100877.66;4756365;30;20087;-81
2023/02/08 10:35:37;;;;;;;46.03;19.88;;;;;;;-6.08;50.25;100878.84;4786130;30;20055;-80
2023/02/08 10:38:18;;;;;;;55.27;21.67;;;;;;;-6.32;49.08;100867.25;4771034;30;20048;-82
2023/02/08 10:40:57;;;;;;;55.88;21.02;;;;;;;-6.07;48.85;100867.59;4756175;29;20301;-81
2023/02/08 10:43:34;;;;;;;51.72;19.30;;;;;;;-5.91;48.64;100864.25;4790059;29;20058;-81
2023/02/08 10:46:09;;;;;;;28.77;13.65;;;;;;;-5.51;48.15;100862.06;4789112;30;20454;-81
2023/02/08 10:48:38;;;;;;;41.20;14.85;;;;;;;-5.07;48.45;100867.69;4759631;30;20495;-81
2023/02/08 10:51:03;;;;;;;43.30;14.35;;;;;;;-5.09;46.12;100860.69;4759634;30;20058;-80
2023/02/08 10:53:30;;;;;;;42.25;17.13;;;;;;;-5.31;46.09;100867.47;4775028;30;20063;-81
2023/02/08 10:55:56;;;;;;;39.53;15.10;;;;;;;-5.09;46.02;100863.31;4774024;30;20123;-77
2023/02/08 10:58:28;;;;;;;38.10;14.85;;;;;;;-5.09;45.77;100855.47;4789016;30;20508;-77
2023/02/08 11:00:57;;;;;;;45.85;16.00;;;;;;;-5.55;45.63;100861.16;4789659;30;20058;-83
2023/02/08 11:03:28;;;;;;;37.05;15.80;;;;;;;-6.32;46.39;100862.06;4789327;30;20071;-79
2023/02/08 11:05:55;;;;;;;42.80;17.40;;;;;;;-6.09;47.14;100864.97;4773582;30;20059;-76
2023/02/08 11:08:24;;;;;;;40.83;18.40;;;;;;;-6.51;47.46;100860.06;4788825;30;20044;-79
2023/02/08 11:11:01;;;;;;;35.28;15.45;;;;;;;-6.02;48.07;100856.34;4787103;30;20138;-79
2023/02/08 11:13:45;;;;;;;34.22;14.73;;;;;;;-5.72;47.06;100855.78;4769694;30;20047;-80
2023/02/08 11:16:20;;;;;;;31.83;14.95;;;;;;;-5.82;47.39;100859.16;4766746;30;20070;-80
2023/02/08 11:18:50;;;;;;;33.58;13.55;;;;;;;-5.57;47.05;100848.97;4788026;30;20047;-80